createdAt,value
2022-09-12T00:01:56.901Z,13.87
2022-09-12T00:05:58.316Z,13.85
2022-09-12T00:09:59.779Z,13.51
2022-09-12T00:14:01.756Z,13.47
2022-09-12T00:18:03.236Z,13.51
2022-09-12T00:22:04.612Z,13.26
2022-09-12T00:26:07.146Z,13.02
2022-09-12T00:30:08.839Z,12.97
2022-09-12T00:34:10.304Z,12.85
2022-09-12T00:38:16.388Z,12.97
2022-09-12T00:42:17.768Z,12.84
2022-09-12T00:46:30.298Z,12.88
2022-09-12T00:50:32.894Z,12.62
2022-09-12T00:54:56.947Z,12.86
2022-09-12T00:59:05.340Z,13.03
2022-09-12T01:03:15.911Z,12.97
2022-09-12T01:07:17.478Z,13.09
2022-09-12T01:11:20.607Z,12.98
2022-09-12T01:15:22.097Z,12.92
2022-09-12T01:19:57.314Z,12.69
2022-09-12T01:24:37.519Z,12.55
2022-09-12T01:29:16.735Z,12.41
2022-09-12T01:33:42.755Z,12.49
2022-09-12T01:37:54.649Z,12.37
2022-09-12T01:42:03.661Z,12.38
2022-09-12T01:46:27.359Z,12.43
2022-09-12T01:50:33.863Z,12.52
2022-09-12T01:54:47.980Z,12.41
2022-09-12T01:59:02.396Z,12.26
2022-09-12T02:03:20.142Z,12.20
2022-09-12T02:07:30.982Z,12.28
2022-09-12T02:11:35.839Z,11.95
2022-09-12T02:15:52.551Z,11.85
2022-09-12T02:20:31.090Z,11.86
2022-09-12T02:24:42.247Z,11.24
2022-09-12T02:28:43.861Z,11.54
2022-09-12T02:33:01.218Z,11.61
2022-09-12T02:37:23.595Z,11.57
2022-09-12T02:41:25.112Z,11.38
2022-09-12T02:45:26.781Z,11.29
2022-09-12T02:49:28.295Z,11.20
2022-09-12T02:53:29.766Z,11.32
2022-09-12T02:57:31.773Z,11.21
2022-09-12T03:02:01.109Z,11.20
2022-09-12T03:06:14.667Z,11.22
2022-09-12T03:10:41.651Z,11.28
2022-09-12T03:15:07.791Z,10.98
2022-09-12T03:19:26.687Z,10.99
2022-09-12T03:24:02.839Z,11.09
2022-09-12T03:28:09.318Z,10.75
2022-09-12T03:32:10.730Z,10.91
2022-09-12T03:36:30.868Z,10.94
2022-09-12T03:40:32.166Z,10.93
2022-09-12T03:44:33.523Z,10.93
2022-09-12T03:48:35.264Z,10.84
2022-09-12T03:52:36.858Z,10.80
2022-09-12T03:56:40.339Z,10.70
2022-09-12T04:00:42.941Z,10.78
2022-09-12T04:04:48.793Z,10.74
2022-09-12T04:08:52.007Z,10.77
2022-09-12T04:12:53.463Z,10.81
2022-09-12T04:16:54.971Z,10.62
2022-09-12T04:20:56.834Z,10.63
2022-09-12T04:24:58.212Z,10.72
2022-09-12T04:28:59.666Z,10.73
2022-09-12T04:33:03.918Z,10.66
2022-09-12T04:37:08.928Z,10.67
2022-09-12T04:41:24.937Z,10.54
2022-09-12T04:45:26.367Z,10.62
2022-09-12T04:49:27.813Z,10.66
2022-09-12T04:53:29.194Z,10.47
2022-09-12T04:57:30.591Z,10.49
2022-09-12T05:01:32.238Z,10.56
2022-09-12T05:05:33.717Z,10.55
2022-09-12T05:09:35.125Z,10.54
2022-09-12T05:13:36.912Z,10.56
2022-09-12T05:17:38.318Z,10.61
2022-09-12T05:21:39.886Z,10.72
2022-09-12T05:25:49.182Z,10.88
2022-09-12T05:29:51.329Z,10.87
2022-09-12T05:33:54.949Z,10.92
2022-09-12T05:37:56.325Z,10.87
2022-09-12T05:41:57.776Z,10.93
2022-09-12T05:46:09.309Z,11.06
2022-09-12T05:50:11.191Z,11.20
2022-09-12T05:54:17.803Z,11.39
2022-09-12T05:58:20.465Z,11.47
2022-09-12T06:02:22.249Z,11.65
2022-09-12T06:06:25.157Z,11.80
2022-09-12T06:10:26.865Z,12.05
2022-09-12T06:14:28.624Z,11.95
2022-09-12T06:18:30.012Z,11.91
2022-09-12T06:22:31.618Z,12.20
2022-09-12T06:26:33.334Z,12.34
2022-09-12T06:30:34.844Z,12.56
2022-09-12T06:34:36.491Z,12.79
2022-09-12T06:38:38.426Z,12.79
2022-09-12T06:42:39.898Z,13.11
2022-09-12T06:46:41.860Z,13.31
2022-09-12T06:50:43.400Z,13.42
2022-09-12T06:54:45.027Z,13.58
2022-09-12T06:58:48.129Z,13.83
2022-09-12T07:02:53.968Z,13.98
2022-09-12T07:06:55.385Z,14.17
2022-09-12T07:10:59.005Z,14.34
2022-09-12T07:15:01.080Z,14.40
2022-09-12T07:19:05.670Z,14.63
2022-09-12T07:23:07.113Z,14.68
2022-09-12T07:27:08.889Z,15.01
2022-09-12T07:31:17.623Z,14.99
2022-09-12T07:35:19.415Z,15.09
2022-09-12T07:39:20.870Z,15.36
2022-09-12T07:43:22.965Z,15.42
2022-09-12T07:47:24.477Z,15.71
2022-09-12T07:51:27.314Z,16.00
2022-09-12T07:55:28.773Z,16.35
2022-09-12T07:59:50.887Z,16.46
2022-09-12T08:03:58.105Z,16.45
2022-09-12T08:07:59.574Z,16.64
2022-09-12T08:12:01.121Z,16.84
2022-09-12T08:16:08.018Z,17.26
2022-09-12T08:20:09.528Z,17.32
2022-09-12T08:24:12.079Z,17.50
2022-09-12T08:28:13.828Z,17.43
2022-09-12T08:32:15.395Z,17.59
2022-09-12T08:36:22.982Z,18.07
2022-09-12T08:40:24.680Z,17.60
2022-09-12T08:44:55.421Z,17.75
2022-09-12T08:48:59.954Z,17.16
2022-09-12T08:53:10.606Z,17.92
2022-09-12T08:57:14.445Z,18.13
2022-09-12T09:01:32.643Z,18.90
2022-09-12T09:05:52.840Z,19.23
2022-09-12T09:10:23.716Z,19.20
2022-09-12T09:14:49.629Z,19.48
2022-09-12T09:18:57.338Z,19.26
2022-09-12T09:23:04.933Z,19.50
2022-09-12T09:27:40.361Z,18.71
2022-09-12T09:31:48.482Z,18.53
2022-09-12T09:36:03.739Z,18.72
2022-09-12T09:40:14.776Z,17.90
2022-09-12T09:44:17.393Z,19.14
2022-09-12T09:48:35.242Z,18.85
2022-09-12T09:52:37.946Z,19.95
2022-09-12T09:56:42.378Z,20.22
2022-09-12T10:00:43.890Z,18.92
2022-09-12T10:05:03.654Z,18.44
2022-09-12T10:09:21.189Z,18.66
2022-09-12T10:13:35.551Z,19.13
2022-09-12T10:17:43.756Z,19.92
2022-09-12T10:21:52.666Z,21.00
2022-09-12T10:25:58.286Z,21.76
2022-09-12T10:29:59.632Z,21.16
2022-09-12T10:34:01.309Z,20.74
2022-09-12T10:38:16.621Z,20.58
2022-09-12T10:42:38.255Z,19.09
2022-09-12T10:46:40.382Z,19.02
2022-09-12T10:50:42.984Z,19.34
2022-09-12T10:54:45.233Z,19.41
2022-09-12T10:58:55.896Z,19.12
2022-09-12T11:03:17.592Z,19.61
2022-09-12T11:07:39.815Z,19.49
2022-09-12T11:11:59.215Z,19.54
2022-09-12T11:16:42.115Z,19.69
2022-09-12T11:20:45.371Z,19.59
2022-09-12T11:25:03.956Z,18.83
2022-09-12T11:29:11.233Z,19.25
2022-09-12T11:33:42.929Z,18.53
2022-09-12T11:38:08.262Z,19.04
2022-09-12T11:42:18.706Z,19.07
2022-09-12T11:46:31.658Z,19.57
2022-09-12T11:50:33.740Z,21.08
2022-09-12T11:54:54.130Z,21.91
2022-09-12T11:59:05.536Z,22.54
2022-09-12T12:03:06.951Z,23.38
2022-09-12T12:07:11.048Z,23.30
2022-09-12T12:11:15.619Z,23.22
2022-09-12T12:15:18.251Z,22.80
2022-09-12T12:19:19.645Z,22.11
2022-09-12T12:23:31.295Z,23.57
2022-09-12T12:28:01.973Z,23.31
2022-09-12T12:32:06.383Z,21.43
2022-09-12T12:36:30.339Z,22.40
2022-09-12T12:40:32.826Z,22.06
2022-09-12T12:44:47.210Z,21.78
2022-09-12T12:48:51.625Z,21.89
2022-09-12T12:53:06.897Z,21.80
2022-09-12T12:57:28.670Z,20.88
2022-09-12T13:01:31.085Z,20.78
2022-09-12T13:05:45.803Z,21.06
2022-09-12T13:09:52.560Z,21.64
2022-09-12T13:14:00.240Z,21.30
2022-09-12T13:18:10.083Z,20.89
2022-09-12T13:22:11.521Z,20.64
2022-09-12T13:26:22.573Z,21.59
2022-09-12T13:30:24.318Z,22.25
2022-09-12T13:34:33.843Z,21.89
2022-09-12T13:38:57.751Z,21.67
2022-09-12T13:43:15.236Z,21.08
2022-09-12T13:47:24.601Z,21.35
2022-09-12T13:51:32.052Z,21.97
2022-09-12T13:55:43.081Z,20.77
2022-09-12T13:59:45.290Z,20.69
2022-09-12T14:04:14.031Z,21.68
2022-09-12T14:08:15.560Z,20.78
2022-09-12T14:12:34.443Z,21.06
2022-09-12T14:16:40.113Z,20.67
2022-09-12T14:20:42.689Z,20.87
2022-09-12T14:24:51.638Z,20.27
2022-09-12T14:28:53.323Z,21.23
2022-09-12T14:33:03.634Z,20.70
2022-09-12T14:37:07.228Z,20.23
2022-09-12T14:41:11.211Z,19.80
2022-09-12T14:45:26.982Z,20.61
2022-09-12T14:49:33.447Z,20.37
2022-09-12T14:53:37.527Z,19.80
2022-09-12T14:57:40.565Z,19.51
2022-09-12T15:01:42.002Z,19.61
2022-09-12T15:05:50.306Z,20.01
2022-09-12T15:09:52.322Z,19.82
2022-09-12T15:13:54.423Z,20.13
2022-09-12T15:17:55.829Z,19.91
2022-09-12T15:21:57.761Z,20.27
2022-09-12T15:25:59.575Z,20.34
2022-09-12T15:30:01.165Z,19.95
2022-09-12T15:34:02.899Z,20.04
2022-09-12T15:38:04.390Z,20.30
2022-09-12T15:42:06.123Z,19.79
2022-09-12T15:46:11.647Z,19.42
2022-09-12T15:50:13.773Z,19.65
2022-09-12T15:54:17.257Z,19.82
2022-09-12T15:58:18.860Z,19.69
2022-09-12T16:02:20.463Z,19.98
2022-09-12T16:06:22.314Z,20.00
2022-09-12T16:10:27.717Z,19.94
2022-09-12T16:14:29.208Z,19.75
2022-09-12T16:18:30.668Z,19.78
2022-09-12T16:22:32.231Z,19.68
2022-09-12T16:26:34.048Z,19.97
2022-09-12T16:30:35.860Z,19.89
2022-09-12T16:34:37.353Z,19.83
2022-09-12T16:38:46.637Z,19.57
2022-09-12T16:42:48.181Z,19.49
2022-09-12T16:46:51.114Z,19.61
2022-09-12T16:50:57.393Z,19.40
2022-09-12T16:54:59.003Z,19.12
2022-09-12T16:59:00.511Z,19.05
2022-09-12T17:03:01.962Z,19.11
2022-09-12T17:07:03.405Z,18.94
2022-09-12T17:11:07.425Z,18.98
2022-09-12T17:15:09.879Z,18.79
2022-09-12T17:19:29.930Z,18.79
2022-09-12T17:23:31.411Z,18.68
2022-09-12T17:27:32.865Z,18.57
2022-09-12T17:31:34.578Z,18.31
2022-09-12T17:35:38.046Z,18.24
2022-09-12T17:39:39.548Z,18.09
2022-09-12T17:43:41.040Z,17.48
2022-09-12T17:47:43.182Z,17.39
2022-09-12T17:51:44.990Z,16.87
2022-09-12T17:55:46.440Z,16.82
2022-09-12T17:59:47.971Z,17.12
2022-09-12T18:03:49.483Z,17.22
2022-09-12T18:07:52.423Z,17.15
2022-09-12T18:11:54.279Z,16.96
2022-09-12T18:16:02.708Z,16.54
2022-09-12T18:20:04.479Z,16.68
2022-09-12T18:24:06.359Z,16.71
2022-09-12T18:28:09.237Z,16.65
2022-09-12T18:32:10.806Z,16.63
2022-09-12T18:36:13.542Z,16.43
2022-09-12T18:40:15.164Z,16.39
2022-09-12T18:44:16.991Z,16.22
2022-09-12T18:48:18.494Z,16.13
2022-09-12T18:52:20.149Z,15.98
2022-09-12T18:56:23.575Z,15.87
2022-09-12T19:00:25.111Z,15.82
2022-09-12T19:04:26.641Z,15.50
2022-09-12T19:08:37.193Z,15.30
2022-09-12T19:12:38.702Z,15.43
2022-09-12T19:16:40.483Z,15.26
2022-09-12T19:20:42.419Z,15.32
2022-09-12T19:24:43.983Z,15.30
2022-09-12T19:28:45.759Z,15.04
2022-09-12T19:32:47.223Z,15.13
2022-09-12T19:36:49.029Z,15.10
2022-09-12T19:40:57.860Z,15.01
2022-09-12T19:44:59.384Z,14.78
2022-09-12T19:49:07.066Z,14.75
2022-09-12T19:53:08.606Z,14.73
2022-09-12T19:57:10.099Z,14.64
2022-09-12T20:01:17.385Z,14.42
2022-09-12T20:05:20.244Z,14.58
2022-09-12T20:09:21.830Z,14.46
2022-09-12T20:13:23.435Z,14.57
2022-09-12T20:17:24.928Z,14.58
2022-09-12T20:21:32.137Z,14.52
2022-09-12T20:25:33.888Z,14.40
2022-09-12T20:29:35.355Z,14.42
2022-09-12T20:33:37.119Z,14.17
2022-09-12T20:37:40.466Z,14.13
2022-09-12T20:41:42.748Z,14.19
2022-09-12T20:45:44.342Z,14.14
2022-09-12T20:49:49.015Z,13.97
2022-09-12T20:53:54.605Z,13.84
2022-09-12T20:57:56.092Z,14.06
2022-09-12T21:01:57.652Z,14.21
2022-09-12T21:05:59.174Z,14.06
2022-09-12T21:10:00.819Z,13.84
2022-09-12T21:14:02.418Z,14.10
2022-09-12T21:18:04.192Z,14.30
2022-09-12T21:22:05.667Z,14.12
2022-09-12T21:26:07.541Z,14.07
2022-09-12T21:30:09.504Z,13.99
2022-09-12T21:34:10.907Z,13.70
2022-09-12T21:38:12.384Z,13.72
2022-09-12T21:42:13.793Z,13.64
2022-09-12T21:46:15.253Z,13.77
2022-09-12T21:50:16.800Z,13.85
2022-09-12T21:54:18.203Z,13.84
2022-09-12T21:58:19.826Z,13.68
2022-09-12T22:02:22.986Z,13.57
2022-09-12T22:06:24.537Z,13.57
2022-09-12T22:10:26.807Z,13.50
2022-09-12T22:14:29.456Z,13.47
2022-09-12T22:18:36.075Z,13.67
2022-09-12T22:22:56.784Z,13.35
2022-09-12T22:26:59.134Z,13.36
2022-09-12T22:31:01.301Z,13.37
2022-09-12T22:35:04.537Z,13.36
2022-09-12T22:39:06.605Z,13.31
2022-09-12T22:43:08.903Z,13.48
2022-09-12T22:47:10.398Z,13.39
2022-09-12T22:51:11.819Z,13.31
2022-09-12T22:55:13.282Z,13.52
2022-09-12T22:59:14.982Z,13.54
2022-09-12T23:03:18.141Z,13.54
2022-09-12T23:07:19.666Z,13.21
2022-09-12T23:11:22.058Z,13.16
2022-09-12T23:15:23.515Z,13.30
2022-09-12T23:19:24.929Z,13.41
2022-09-12T23:23:27.027Z,13.43
2022-09-12T23:27:28.455Z,13.32
2022-09-12T23:31:31.941Z,13.27
2022-09-12T23:35:34.600Z,12.79
2022-09-12T23:39:36.076Z,12.82
2022-09-12T23:43:37.923Z,12.82
2022-09-12T23:47:39.365Z,12.88
2022-09-12T23:51:40.777Z,12.81
2022-09-12T23:55:42.768Z,12.99
2022-09-12T23:59:44.176Z,12.86
